Time;durP1;ratioP1;P1;durP2;ratioP2;P2;SDS_P1;SDS_P2;PMS_P1;PMS_P2;Temp;Humidity;BMP_temperature;BMP_pressure;BME280_temperature;BME280_humidity;BME280_pressure;Samples;Min_cycle;Max_cycle;Signal;HPM_P1;HPM_P2
2022/10/27 00:00:08;;;;;;;76.90;8.65;;;9.00;99.90;;;;;;5075940;28;20270;-74
2022/10/27 00:02:34;;;;;;;84.72;9.02;;;9.00;99.90;;;;;;5076410;28;20173;-74
2022/10/27 00:04:59;;;;;;;75.38;8.63;;;9.00;99.90;;;;;;5077537;28;20260;-74
2022/10/27 00:07:56;;;;;;;80.22;8.40;;;9.10;99.90;;;;;;5076336;28;20220;-74
2022/10/27 00:10:22;;;;;;;84.78;7.07;;;9.10;99.90;;;;;;5077504;28;20165;-74
2022/10/27 00:12:48;;;;;;;21.58;5.45;;;9.10;99.90;;;;;;5076967;28;20271;-74
2022/10/27 00:15:13;;;;;;;17.85;5.47;;;9.10;99.90;;;;;;5093906;28;20177;-74
2022/10/27 00:17:39;;;;;;;64.72;6.40;;;9.00;99.90;;;;;;5076466;28;20205;-76
2022/10/27 00:20:06;;;;;;;48.20;6.50;;;9.10;99.90;;;;;;5076140;28;20258;-75
2022/10/27 00:22:32;;;;;;;49.10;7.15;;;9.10;99.90;;;;;;5075703;28;20169;-74
2022/10/27 00:24:57;;;;;;;15.65;6.45;;;9.20;99.90;;;;;;5075720;28;20169;-74
2022/10/27 00:27:23;;;;;;;20.02;6.35;;;9.30;99.90;;;;;;5076113;28;20715;-74
2022/10/27 00:29:48;;;;;;;37.42;6.03;;;9.30;99.90;;;;;;5075513;28;20670;-74
2022/10/27 00:32:14;;;;;;;27.77;6.47;;;9.30;99.90;;;;;;5093607;28;20177;-75
2022/10/27 00:34:40;;;;;;;49.30;6.60;;;9.30;99.90;;;;;;5093905;28;20169;-75
2022/10/27 00:37:12;;;;;;;22.75;7.28;;;9.20;99.90;;;;;;5076650;28;20200;-76
2022/10/27 00:39:37;;;;;;;48.50;6.80;;;9.20;99.90;;;;;;5075773;28;20176;-76
2022/10/27 00:42:03;;;;;;;30.17;6.70;;;9.20;99.90;;;;;;5075429;28;20196;-76
2022/10/27 00:44:41;;;;;;;37.28;6.97;;;9.20;99.90;;;;;;5074816;28;20184;-74
2022/10/27 00:47:25;;;;;;;44.47;6.57;;;9.20;99.90;;;;;;5094026;28;20283;-74
2022/10/27 00:50:15;;;;;;;50.80;6.95;;;9.20;99.90;;;;;;5075368;28;20661;-74
2022/10/27 00:52:49;;;;;;;36.92;5.70;;;9.20;99.90;;;;;;5075436;28;20169;-74
2022/10/27 00:55:21;;;;;;;47.75;6.40;;;9.30;99.90;;;;;;5093722;28;20195;-74
2022/10/27 00:57:50;;;;;;;41.35;5.70;;;9.30;99.90;;;;;;5076056;28;20247;-74
2022/10/27 01:00:16;;;;;;;44.58;6.50;;;9.30;99.90;;;;;;5075935;28;20208;-74
2022/10/27 01:02:43;;;;;;;13.23;6.05;;;9.20;99.90;;;;;;5075300;28;20548;-74
2022/10/27 01:05:18;;;;;;;52.75;6.53;;;9.10;99.90;;;;;;5093323;28;20173;-74
2022/10/27 01:07:45;;;;;;;39.35;5.57;;;9.00;99.90;;;;;;5093312;28;20218;-74
2022/10/27 01:10:12;;;;;;;28.13;5.45;;;9.10;99.90;;;;;;5093575;28;20188;-74
2022/10/27 01:12:38;;;;;;;77.40;6.60;;;9.10;99.90;;;;;;5076387;28;20181;-74
2022/10/27 01:15:05;;;;;;;51.97;6.20;;;9.00;99.90;;;;;;5075262;28;20547;-74
2022/10/27 01:17:48;;;;;;;42.25;6.47;;;9.10;99.90;;;;;;5074991;28;20203;-74
2022/10/27 01:20:27;;;;;;;26.90;6.13;;;9.20;99.90;;;;;;5076082;28;20266;-74
2022/10/27 01:23:15;;;;;;;22.27;5.85;;;9.20;99.90;;;;;;5075776;28;20168;-74
2022/10/27 01:26:02;;;;;;;19.30;4.93;;;9.30;99.90;;;;;;5075582;28;20192;-76
2022/10/27 01:28:50;;;;;;;75.15;5.97;;;9.30;99.90;;;;;;5074817;28;20299;-76
2022/10/27 01:31:43;;;;;;;53.60;6.35;;;8.90;99.90;;;;;;5093929;28;20165;-76
2022/10/27 01:34:11;;;;;;;179.75;9.32;;;8.90;99.90;;;;;;5075005;28;20169;-76
2022/10/27 01:36:45;;;;;;;68.57;8.02;;;8.90;99.90;;;;;;5074884;28;20185;-76
2022/10/27 01:39:20;;;;;;;142.30;8.60;;;9.00;99.90;;;;;;5093529;28;20199;-76
2022/10/27 01:42:13;;;;;;;51.28;7.95;;;9.00;99.90;;;;;;5093040;28;20234;-76
2022/10/27 01:44:51;;;;;;;50.50;7.57;;;8.90;99.90;;;;;;5075834;28;20165;-76
2022/10/27 01:47:19;;;;;;;100.70;8.13;;;9.00;99.90;;;;;;5074973;28;20291;-76
2022/10/27 01:49:44;;;;;;;124.70;9.10;;;9.00;99.90;;;;;;5093195;28;20335;-76
2022/10/27 01:52:47;;;;;;;55.63;8.18;;;9.00;99.90;;;;;;5093118;28;20286;-76
2022/10/27 01:55:34;;;;;;;52.90;9.23;;;9.00;99.90;;;;;;5075172;28;20185;-76
2022/10/27 01:58:12;;;;;;;16.63;7.80;;;9.10;99.90;;;;;;5077957;28;20208;-76
2022/10/27 02:01:08;;;;;;;46.17;8.25;;;9.00;99.90;;;;;;5078317;28;20204;-76
2022/10/27 02:03:57;;;;;;;55.10;8.05;;;8.80;99.90;;;;;;5079457;28;20172;-75
2022/10/27 02:06:33;;;;;;;69.18;10.23;;;8.90;99.90;;;;;;5079116;28;20169;-75
2022/10/27 02:09:21;;;;;;;32.35;9.00;;;8.90;99.90;;;;;;5079029;28;20181;-74
2022/10/27 02:11:51;;;;;;;109.20;11.02;;;8.90;99.90;;;;;;5079285;28;20569;-74
2022/10/27 02:14:17;;;;;;;89.88;12.07;;;9.00;99.90;;;;;;5096215;28;20264;-74
2022/10/27 02:16:48;;;;;;;72.53;10.40;;;9.00;99.90;;;;;;5078624;28;20201;-74
2022/10/27 02:19:26;;;;;;;41.97;10.65;;;9.10;99.90;;;;;;5078437;28;20177;-76
2022/10/27 02:21:56;;;;;;;16.15;9.55;;;9.10;99.90;;;;;;5077847;28;20201;-76
2022/10/27 02:24:33;;;;;;;70.88;9.55;;;9.20;99.90;;;;;;5096127;28;20153;-76
2022/10/27 02:27:12;;;;;;;63.25;7.13;;;9.20;99.90;;;;;;5077733;28;20201;-76
2022/10/27 02:29:43;;;;;;;105.47;8.00;;;9.10;99.90;;;;;;5095913;28;20169;-76
2022/10/27 02:32:12;;;;;;;52.85;7.63;;;9.10;99.90;;;;;;5078636;28;20179;-76
2022/10/27 02:34:40;;;;;;;29.05;7.28;;;9.10;99.90;;;;;;5078507;28;20207;-76
2022/10/27 02:37:07;;;;;;;38.55;6.32;;;9.20;99.90;;;;;;5077588;28;20706;-76
2022/10/27 02:39:33;;;;;;;24.33;5.47;;;9.30;99.90;;;;;;5077924;28;20246;-76
2022/10/27 02:42:00;;;;;;;16.33;5.00;;;9.30;99.90;;;;;;5078485;28;20216;-76
2022/10/27 02:44:25;;;;;;;33.35;4.90;;;9.30;99.90;;;;;;5095873;28;20181;-76
2022/10/27 02:46:51;;;;;;;32.47;5.40;;;9.30;99.90;;;;;;5077306;28;20188;-76
2022/10/27 02:49:16;;;;;;;37.35;5.32;;;9.40;99.90;;;;;;5077468;28;20223;-76
2022/10/27 02:51:42;;;;;;;22.88;5.53;;;9.40;99.90;;;;;;5077618;28;20169;-76
2022/10/27 02:54:07;;;;;;;23.73;6.10;;;9.40;99.90;;;;;;5077617;28;20172;-76
2022/10/27 02:56:33;;;;;;;26.50;5.80;;;9.50;99.90;;;;;;5077243;28;20180;-76
2022/10/27 02:58:58;;;;;;;20.92;5.25;;;9.50;99.90;;;;;;5077392;28;20181;-76
2022/10/27 03:01:24;;;;;;;34.28;6.20;;;9.50;99.90;;;;;;5077028;28;20242;-76
2022/10/27 03:03:49;;;;;;;22.13;6.18;;;9.50;99.90;;;;;;5077170;28;20651;-76
2022/10/27 03:06:15;;;;;;;36.58;5.97;;;9.50;99.90;;;;;;5077489;28;20177;-76
2022/10/27 03:08:40;;;;;;;65.50;6.57;;;9.50;99.90;;;;;;5077182;28;20200;-76
2022/10/27 03:11:06;;;;;;;77.85;9.02;;;9.50;99.90;;;;;;5077840;28;20665;-76
2022/10/27 03:13:31;;;;;;;65.25;7.22;;;9.40;99.90;;;;;;5076969;28;20177;-76
2022/10/27 03:16:30;;;;;;;34.05;6.75;;;9.40;99.90;;;;;;5077183;28;20177;-76
